createdAt,value
2018-05-18T00:02:11.146Z,8.60
2018-05-18T00:04:39.383Z,9.43
2018-05-18T00:07:07.607Z,8.63
2018-05-18T00:09:35.848Z,10.40
2018-05-18T00:12:04.066Z,8.67
2018-05-18T00:14:32.436Z,9.30
2018-05-18T00:17:00.703Z,8.27
2018-05-18T00:19:28.923Z,9.27
2018-05-18T00:21:57.179Z,8.30
2018-05-18T00:24:25.504Z,6.57
2018-05-18T00:26:54.016Z,8.13
2018-05-18T00:29:22.239Z,9.20
2018-05-18T00:31:50.470Z,6.77
2018-05-18T00:34:18.687Z,7.93
2018-05-18T00:36:46.927Z,7.40
2018-05-18T00:39:15.143Z,7.67
2018-05-18T00:41:43.471Z,9.47
2018-05-18T00:44:11.687Z,8.60
2018-05-18T00:46:39.919Z,8.80
2018-05-18T00:49:08.128Z,7.67
2018-05-18T00:51:36.563Z,6.50
2018-05-18T00:54:04.814Z,7.40
2018-05-18T00:56:33.051Z,6.43
2018-05-18T00:59:01.270Z,7.47
2018-05-18T01:01:29.779Z,8.27
2018-05-18T01:03:58.001Z,7.70
2018-05-18T01:06:27.150Z,6.90
2018-05-18T01:08:55.523Z,6.97
2018-05-18T01:11:23.754Z,6.67
2018-05-18T01:13:51.971Z,8.53
2018-05-18T01:16:20.210Z,7.77
2018-05-18T01:18:48.427Z,9.47
2018-05-18T01:21:16.685Z,7.27
2018-05-18T01:23:44.899Z,7.67
2018-05-18T01:26:13.114Z,7.20
2018-05-18T01:28:41.353Z,7.33
2018-05-18T01:31:09.566Z,8.23
2018-05-18T01:33:37.803Z,6.77
2018-05-18T01:36:06.050Z,6.87
2018-05-18T01:38:34.530Z,7.47
2018-05-18T01:41:02.771Z,7.80
2018-05-18T01:43:31.004Z,7.07
2018-05-18T01:45:59.223Z,6.67
2018-05-18T01:48:27.735Z,6.57
2018-05-18T01:50:55.987Z,8.80
2018-05-18T01:53:24.214Z,7.07
2018-05-18T01:55:52.431Z,5.70
2018-05-18T01:58:20.758Z,6.47
2018-05-18T02:00:48.976Z,7.43
2018-05-18T02:03:17.418Z,7.53
2018-05-18T02:05:45.774Z,5.87
2018-05-18T02:08:14.100Z,7.20
2018-05-18T02:10:42.319Z,6.50
2018-05-18T02:13:10.561Z,7.33
2018-05-18T02:15:38.771Z,6.00
2018-05-18T02:18:07.011Z,8.20
2018-05-18T02:20:35.223Z,7.07
2018-05-18T02:23:03.453Z,7.03
2018-05-18T02:25:31.680Z,6.97
2018-05-18T02:27:59.918Z,6.20
2018-05-18T02:30:28.199Z,7.37
2018-05-18T02:32:56.627Z,8.00
2018-05-18T02:35:24.843Z,5.97
2018-05-18T02:37:53.995Z,6.50
2018-05-18T02:40:22.318Z,5.43
2018-05-18T02:42:50.555Z,6.50
2018-05-18T02:45:18.770Z,4.77
2018-05-18T02:47:47.003Z,5.73
2018-05-18T02:50:15.221Z,7.13
2018-05-18T02:52:43.455Z,5.80
2018-05-18T02:55:11.677Z,5.07
2018-05-18T02:57:40.108Z,8.27
2018-05-18T03:00:08.431Z,5.27
2018-05-18T03:02:36.653Z,6.73
2018-05-18T03:05:04.882Z,8.00
2018-05-18T03:07:33.102Z,5.77
2018-05-18T03:10:01.337Z,7.00
2018-05-18T03:12:29.541Z,6.23
2018-05-18T03:14:57.912Z,5.20
2018-05-18T03:17:26.196Z,5.33
2018-05-18T03:19:54.552Z,6.47
2018-05-18T03:22:22.767Z,6.43
2018-05-18T03:24:51.035Z,5.93
2018-05-18T03:27:19.399Z,5.67
2018-05-18T03:29:47.632Z,5.57
2018-05-18T03:32:15.852Z,5.97
2018-05-18T03:34:44.083Z,5.87
2018-05-18T03:37:12.299Z,5.17
2018-05-18T03:39:40.615Z,5.63
2018-05-18T03:42:08.830Z,6.63
2018-05-18T03:44:37.831Z,5.53
2018-05-18T03:47:06.046Z,5.27
2018-05-18T03:49:34.289Z,4.40
2018-05-18T03:52:02.537Z,6.03
2018-05-18T03:54:30.746Z,5.80
2018-05-18T03:56:58.984Z,5.90
2018-05-18T03:59:27.495Z,5.90
2018-05-18T04:02:07.343Z,5.27
2018-05-18T04:04:47.600Z,5.73
2018-05-18T04:07:27.799Z,5.23
2018-05-18T04:09:56.016Z,5.20
2018-05-18T04:12:25.329Z,5.00
2018-05-18T04:14:54.294Z,6.10
2018-05-18T04:17:22.522Z,5.40
2018-05-18T04:19:50.755Z,5.33
2018-05-18T04:22:19.050Z,4.27
2018-05-18T04:24:47.190Z,5.20
2018-05-18T04:27:15.423Z,4.43
2018-05-18T04:29:43.647Z,5.40
2018-05-18T04:32:12.652Z,5.53
2018-05-18T04:34:41.630Z,5.90
2018-05-18T04:37:09.867Z,5.43
2018-05-18T04:39:38.083Z,5.30
2018-05-18T04:42:07.104Z,5.67
2018-05-18T04:44:35.410Z,5.97
2018-05-18T04:47:03.650Z,5.77
2018-05-18T04:49:31.880Z,5.07
2018-05-18T04:52:00.095Z,4.37
2018-05-18T04:54:28.335Z,4.13
2018-05-18T04:56:56.623Z,5.30
2018-05-18T04:59:24.970Z,3.93
2018-05-18T05:01:53.206Z,5.33
2018-05-18T05:04:21.439Z,4.17
2018-05-18T05:06:49.826Z,5.13
2018-05-18T05:09:18.222Z,5.03
2018-05-18T05:11:46.535Z,4.90
2018-05-18T05:14:14.758Z,5.47
2018-05-18T05:16:43.035Z,4.00
2018-05-18T05:19:11.269Z,4.80
2018-05-18T05:21:39.555Z,3.33
2018-05-18T05:24:07.998Z,4.20
2018-05-18T05:26:36.215Z,3.57
2018-05-18T05:29:04.460Z,5.17
2018-05-18T05:31:32.675Z,4.80
2018-05-18T05:34:01.090Z,4.03
2018-05-18T05:36:29.464Z,5.10
2018-05-18T05:38:57.879Z,5.20
2018-05-18T05:41:26.201Z,5.53
2018-05-18T05:43:54.402Z,5.07
2018-05-18T05:46:23.391Z,13.03
2018-05-18T05:48:52.411Z,17.23
2018-05-18T05:51:20.775Z,10.93
2018-05-18T05:53:49.039Z,13.13
2018-05-18T05:56:17.263Z,13.93
2018-05-18T05:58:46.159Z,12.47
2018-05-18T06:01:18.583Z,13.10
2018-05-18T06:03:50.337Z,11.97
2018-05-18T06:06:23.953Z,11.97
2018-05-18T06:08:57.891Z,10.00
2018-05-18T06:11:28.876Z,10.93
2018-05-18T06:14:02.128Z,11.17
2018-05-18T06:16:37.051Z,11.80
2018-05-18T06:19:11.219Z,10.03
2018-05-18T06:21:44.539Z,12.47
2018-05-18T06:24:16.329Z,13.47
2018-05-18T06:26:49.615Z,9.83
2018-05-18T06:29:23.105Z,10.77
2018-05-18T06:31:56.688Z,10.00
2018-05-18T06:34:28.632Z,10.93
2018-05-18T06:37:02.930Z,12.23
2018-05-18T06:39:34.270Z,9.83
2018-05-18T06:42:03.766Z,14.20
2018-05-18T06:44:32.300Z,14.53
2018-05-18T06:49:47.689Z,13.77
2018-05-18T06:52:15.910Z,15.10
2018-05-18T06:54:44.127Z,21.87
2018-05-18T06:57:15.389Z,20.63
2018-05-18T06:59:46.932Z,50.03
2018-05-18T07:02:16.130Z,86.50
2018-05-18T07:04:44.366Z,119.20
2018-05-18T07:07:12.615Z,118.03
2018-05-18T07:09:40.845Z,112.93
2018-05-18T07:12:09.128Z,115.23
2018-05-18T07:14:37.326Z,145.47
2018-05-18T07:17:05.583Z,147.63
2018-05-18T07:19:33.815Z,165.47
2018-05-18T07:22:02.062Z,174.23
2018-05-18T07:24:30.290Z,162.70
2018-05-18T07:26:58.538Z,150.20
2018-05-18T07:32:01.514Z,130.30
2018-05-18T07:34:29.985Z,131.37
2018-05-18T07:36:58.214Z,155.17
2018-05-18T07:39:27.235Z,182.37
2018-05-18T07:41:55.486Z,229.37
2018-05-18T07:44:23.724Z,229.57
2018-05-18T07:46:51.979Z,222.00
2018-05-18T07:49:20.443Z,247.53
2018-05-18T07:51:48.747Z,274.03
2018-05-18T07:54:17.218Z,226.87
2018-05-18T07:56:45.472Z,265.60
2018-05-18T07:59:13.707Z,275.90
2018-05-18T08:01:42.720Z,257.27
2018-05-18T08:04:10.955Z,254.80
2018-05-18T08:06:39.200Z,279.80
2018-05-18T08:09:07.426Z,265.30
2018-05-18T08:11:36.495Z,260.43
2018-05-18T08:14:04.750Z,243.13
2018-05-18T08:16:32.983Z,221.83
2018-05-18T08:19:01.301Z,224.13
2018-05-18T08:21:29.607Z,201.27
2018-05-18T08:23:57.800Z,222.40
2018-05-18T08:26:26.030Z,190.80
2018-05-18T08:29:06.487Z,193.87
2018-05-18T08:31:34.719Z,177.07
2018-05-18T08:34:03.126Z,200.57
2018-05-18T08:36:32.283Z,190.87
2018-05-18T08:39:00.536Z,147.47
2018-05-18T08:41:28.865Z,145.37
2018-05-18T08:43:57.264Z,158.33
2018-05-18T08:46:25.490Z,165.63
2018-05-18T08:48:53.822Z,145.37
2018-05-18T08:51:22.073Z,134.20
2018-05-18T08:53:50.433Z,140.73
2018-05-18T08:56:18.832Z,141.80
2018-05-18T08:58:47.075Z,116.57
2018-05-18T09:01:16.308Z,115.97
2018-05-18T09:03:44.594Z,125.53
2018-05-18T09:06:12.832Z,165.97
2018-05-18T09:08:41.079Z,219.87
2018-05-18T09:11:09.520Z,235.07
2018-05-18T09:13:37.915Z,348.77
2018-05-18T09:16:06.155Z,290.67
2018-05-18T09:18:34.405Z,278.77
2018-05-18T09:21:02.674Z,263.70
2018-05-18T09:23:30.956Z,233.73
2018-05-18T09:25:59.168Z,217.33
2018-05-18T09:28:27.598Z,240.70
2018-05-18T09:30:55.830Z,484.90
2018-05-18T09:33:24.103Z,377.33
2018-05-18T09:35:53.364Z,285.30
2018-05-18T09:38:21.635Z,254.10
2018-05-18T09:40:49.861Z,274.80
2018-05-18T09:43:18.106Z,230.33
2018-05-18T09:45:46.368Z,213.07
2018-05-18T09:48:14.615Z,206.47
2018-05-18T09:50:42.866Z,270.80
2018-05-18T09:53:11.101Z,317.93
2018-05-18T09:55:39.347Z,198.43
2018-05-18T09:58:07.823Z,235.57
2018-05-18T10:00:36.091Z,183.83
2018-05-18T10:03:04.946Z,177.23
2018-05-18T10:05:33.202Z,152.80
2018-05-18T10:08:01.427Z,136.87
2018-05-18T10:10:29.671Z,127.50
2018-05-18T10:12:58.677Z,120.67
2018-05-18T10:15:27.698Z,138.87
2018-05-18T10:17:55.946Z,128.97
2018-05-18T10:20:24.363Z,111.27
2018-05-18T10:22:52.586Z,107.63
2018-05-18T10:25:26.427Z,107.83
2018-05-18T10:27:54.703Z,101.60
2018-05-18T10:30:29.016Z,84.37
2018-05-18T10:32:57.268Z,73.10
2018-05-18T10:35:28.589Z,77.47
2018-05-18T10:37:56.814Z,71.27
2018-05-18T10:40:26.249Z,63.47
2018-05-18T10:42:55.095Z,56.77
2018-05-18T10:45:23.545Z,59.83
2018-05-18T10:47:51.782Z,54.83
2018-05-18T10:50:20.313Z,52.93
2018-05-18T10:52:48.562Z,48.20
2018-05-18T10:57:53.962Z,50.03
2018-05-18T11:00:22.526Z,46.23
2018-05-18T11:02:50.926Z,109.17
2018-05-18T11:05:19.173Z,71.97
2018-05-18T11:07:47.407Z,75.00
2018-05-18T11:10:15.707Z,85.43
2018-05-18T11:12:43.947Z,63.07
2018-05-18T11:15:12.176Z,62.63
2018-05-18T11:17:40.578Z,60.43
2018-05-18T11:20:08.852Z,67.50
2018-05-18T11:22:37.093Z,60.27
2018-05-18T11:25:05.315Z,58.47
2018-05-18T11:27:33.570Z,52.43
2018-05-18T11:30:02.553Z,55.73
2018-05-18T11:32:30.777Z,54.30
2018-05-18T11:34:58.999Z,48.67
2018-05-18T11:37:27.294Z,44.90
2018-05-18T11:39:55.529Z,34.60
2018-05-18T11:42:23.770Z,37.20
2018-05-18T11:44:52.007Z,39.07
2018-05-18T11:47:20.248Z,40.03
2018-05-18T11:49:48.454Z,36.63
2018-05-18T11:52:16.690Z,35.17
2018-05-18T11:54:46.774Z,36.20
2018-05-18T11:57:15.032Z,40.93
2018-05-18T11:59:43.284Z,56.70
2018-05-18T12:02:11.511Z,43.37
2018-05-18T12:04:39.768Z,53.97
2018-05-18T12:07:08.819Z,49.47
2018-05-18T12:09:37.052Z,240.53
2018-05-18T12:12:05.292Z,194.60
2018-05-18T12:14:33.551Z,184.03
2018-05-18T12:17:01.792Z,148.10
2018-05-18T12:19:30.039Z,90.30
2018-05-18T12:21:58.267Z,95.93
2018-05-18T12:24:26.509Z,95.67
2018-05-18T12:26:54.752Z,79.97
2018-05-18T12:29:29.039Z,84.53
2018-05-18T12:31:57.265Z,78.80
2018-05-18T12:34:25.553Z,59.67
2018-05-18T12:36:53.891Z,65.73
2018-05-18T12:39:22.142Z,58.77
2018-05-18T12:41:50.374Z,58.17
2018-05-18T12:44:18.618Z,53.25
2018-05-18T12:46:47.615Z,48.35
2018-05-18T12:49:16.627Z,164.47
2018-05-18T12:51:45.019Z,119.40
2018-05-18T12:54:13.262Z,97.63
2018-05-18T12:56:41.635Z,99.70
2018-05-18T12:59:09.883Z,69.57
2018-05-18T13:01:38.108Z,67.97
2018-05-18T13:04:06.551Z,61.75
2018-05-18T13:06:34.774Z,51.97
2018-05-18T13:09:03.007Z,53.83
2018-05-18T13:11:36.351Z,51.90
2018-05-18T13:14:04.583Z,47.50
2018-05-18T13:16:32.823Z,43.10
2018-05-18T13:19:01.083Z,43.72
2018-05-18T13:21:29.331Z,38.43
2018-05-18T13:23:57.554Z,41.08
2018-05-18T13:26:25.798Z,33.22
2018-05-18T13:28:54.032Z,33.20
2018-05-18T13:31:23.043Z,33.47
2018-05-18T13:33:51.274Z,29.92
2018-05-18T13:36:19.519Z,27.07
2018-05-18T13:38:47.761Z,40.20
2018-05-18T13:41:15.991Z,54.10
2018-05-18T13:43:44.227Z,50.70
2018-05-18T13:46:12.599Z,47.80
2018-05-18T13:48:40.833Z,35.73
2018-05-18T13:54:00.503Z,39.75
2018-05-18T13:56:28.751Z,34.05
2018-05-18T13:58:57.207Z,60.92
2018-05-18T14:01:25.715Z,53.15
2018-05-18T14:03:53.991Z,53.72
2018-05-18T14:06:22.423Z,448.53
2018-05-18T14:08:50.654Z,205.20
2018-05-18T14:11:18.902Z,152.57
2018-05-18T14:13:47.299Z,131.10
2018-05-18T14:16:15.548Z,107.50
2018-05-18T14:18:43.959Z,76.80
2018-05-18T14:21:12.350Z,60.27
2018-05-18T14:23:40.679Z,51.13
2018-05-18T14:26:08.977Z,41.50
2018-05-18T14:28:37.198Z,38.13
2018-05-18T14:31:05.588Z,41.20
2018-05-18T14:33:33.818Z,38.00
2018-05-18T14:36:02.075Z,28.93
2018-05-18T14:38:30.383Z,58.37
2018-05-18T14:40:58.606Z,63.73
2018-05-18T14:43:26.853Z,50.80
2018-05-18T14:45:55.076Z,44.30
2018-05-18T14:48:23.322Z,42.47
2018-05-18T14:50:52.328Z,35.10
2018-05-18T14:53:21.330Z,34.40
2018-05-18T14:55:49.714Z,30.92
2018-05-18T14:58:18.018Z,27.50
2018-05-18T15:00:46.479Z,26.37
2018-05-18T15:03:14.739Z,22.13
2018-05-18T15:05:43.108Z,23.57
2018-05-18T15:08:11.343Z,74.10
2018-05-18T15:10:39.566Z,72.50
2018-05-18T15:13:07.802Z,63.93
2018-05-18T15:15:36.827Z,56.42
2018-05-18T15:18:05.090Z,45.27
2018-05-18T15:20:34.088Z,45.53
2018-05-18T15:23:03.131Z,30.83
2018-05-18T15:25:31.355Z,31.83
2018-05-18T15:27:59.599Z,37.00
2018-05-18T15:30:27.819Z,27.03
2018-05-18T15:32:56.203Z,26.10
2018-05-18T15:35:24.595Z,25.40
2018-05-18T15:37:53.000Z,25.63
2018-05-18T15:40:21.449Z,20.77
2018-05-18T15:42:52.260Z,27.80
2018-05-18T15:48:20.089Z,18.20
2018-05-18T15:53:36.786Z,18.23
2018-05-18T16:02:05.014Z,14.68
2018-05-18T16:08:02.946Z,13.67
2018-05-18T16:10:50.944Z,26.27
2018-05-18T16:17:04.371Z,66.70
